sensor_id;sensor_type;location;lat;lon;timestamp;P1;durP1;ratioP1;P2;durP2;ratioP2
51943;SDS011;37969;53.132;6.370;2023-08-17T00:00:20;7.38;;;3.10;;
51943;SDS011;37969;53.132;6.370;2023-08-17T00:02:46;7.68;;;2.90;;
51943;SDS011;37969;53.132;6.370;2023-08-17T00:05:13;7.88;;;2.65;;
51943;SDS011;37969;53.132;6.370;2023-08-17T00:07:39;6.55;;;3.08;;
51943;SDS011;37969;53.132;6.370;2023-08-17T00:10:05;5.07;;;2.67;;
51943;SDS011;37969;53.132;6.370;2023-08-17T00:12:31;5.60;;;2.47;;
51943;SDS011;37969;53.132;6.370;2023-08-17T00:14:57;5.72;;;2.85;;
51943;SDS011;37969;53.132;6.370;2023-08-17T00:17:24;7.45;;;2.92;;
51943;SDS011;37969;53.132;6.370;2023-08-17T00:19:50;7.45;;;2.70;;
51943;SDS011;37969;53.132;6.370;2023-08-17T00:22:16;3.78;;;2.83;;
51943;SDS011;37969;53.132;6.370;2023-08-17T00:24:42;8.48;;;2.67;;
51943;SDS011;37969;53.132;6.370;2023-08-17T00:27:10;8.02;;;2.65;;
51943;SDS011;37969;53.132;6.370;2023-08-17T00:29:36;6.15;;;2.72;;
51943;SDS011;37969;53.132;6.370;2023-08-17T00:32:03;6.93;;;2.92;;
51943;SDS011;37969;53.132;6.370;2023-08-17T00:34:29;5.53;;;2.50;;
51943;SDS011;37969;53.132;6.370;2023-08-17T00:36:55;6.53;;;2.72;;
51943;SDS011;37969;53.132;6.370;2023-08-17T00:39:22;5.85;;;2.53;;
51943;SDS011;37969;53.132;6.370;2023-08-17T00:41:48;4.13;;;2.67;;
51943;SDS011;37969;53.132;6.370;2023-08-17T00:44:14;2.90;;;2.50;;
51943;SDS011;37969;53.132;6.370;2023-08-17T00:46:40;5.05;;;2.53;;
51943;SDS011;37969;53.132;6.370;2023-08-17T00:49:06;5.72;;;2.53;;
51943;SDS011;37969;53.132;6.370;2023-08-17T00:51:33;9.60;;;3.05;;
51943;SDS011;37969;53.132;6.370;2023-08-17T00:53:59;7.63;;;2.70;;
51943;SDS011;37969;53.132;6.370;2023-08-17T00:56:27;7.85;;;2.75;;
51943;SDS011;37969;53.132;6.370;2023-08-17T00:58:53;9.23;;;3.00;;
51943;SDS011;37969;53.132;6.370;2023-08-17T01:01:20;7.63;;;2.63;;
51943;SDS011;37969;53.132;6.370;2023-08-17T01:03:46;5.57;;;2.90;;
51943;SDS011;37969;53.132;6.370;2023-08-17T01:06:12;5.97;;;2.83;;
51943;SDS011;37969;53.132;6.370;2023-08-17T01:08:39;5.95;;;2.70;;
51943;SDS011;37969;53.132;6.370;2023-08-17T01:11:19;5.40;;;2.72;;
51943;SDS011;37969;53.132;6.370;2023-08-17T01:13:47;8.20;;;2.92;;
51943;SDS011;37969;53.132;6.370;2023-08-17T01:45:28;148.40;;;133.57;;
51943;SDS011;37969;53.132;6.370;2023-08-17T01:47:55;112.05;;;86.65;;
51943;SDS011;37969;53.132;6.370;2023-08-17T01:50:21;10.68;;;6.68;;
51943;SDS011;37969;53.132;6.370;2023-08-17T01:52:47;415.45;;;157.35;;
51943;SDS011;37969;53.132;6.370;2023-08-17T01:55:16;434.13;;;171.07;;
51943;SDS011;37969;53.132;6.370;2023-08-17T01:57:42;472.83;;;216.45;;
51943;SDS011;37969;53.132;6.370;2023-08-17T02:02:36;6.65;;;3.55;;
51943;SDS011;37969;53.132;6.370;2023-08-17T02:05:02;448.95;;;202.10;;
51943;SDS011;37969;53.132;6.370;2023-08-17T02:07:28;302.13;;;259.60;;
51943;SDS011;37969;53.132;6.370;2023-08-17T02:12:21;466.80;;;207.98;;
51943;SDS011;37969;53.132;6.370;2023-08-17T02:14:47;418.98;;;247.55;;
51943;SDS011;37969;53.132;6.370;2023-08-17T02:17:13;3.53;;;2.67;;
51943;SDS011;37969;53.132;6.370;2023-08-17T02:19:42;448.02;;;264.42;;
51943;SDS011;37969;53.132;6.370;2023-08-17T02:22:09;7.18;;;2.97;;
51943;SDS011;37969;53.132;6.370;2023-08-17T02:27:01;8.25;;;4.20;;
51943;SDS011;37969;53.132;6.370;2023-08-17T02:34:19;482.67;;;246.18;;
51943;SDS011;37969;53.132;6.370;2023-08-17T02:36:45;499.02;;;262.92;;
51943;SDS011;37969;53.132;6.370;2023-08-17T02:39:12;474.75;;;220.30;;
51943;SDS011;37969;53.132;6.370;2023-08-17T02:41:38;6.78;;;3.80;;
51943;SDS011;37969;53.132;6.370;2023-08-17T02:44:04;7.13;;;3.60;;
51943;SDS011;37969;53.132;6.370;2023-08-17T02:46:31;30.95;;;27.83;;
51943;SDS011;37969;53.132;6.370;2023-08-17T04:31:16;525.10;;;378.90;;
51943;SDS011;37969;53.132;6.370;2023-08-17T04:33:42;466.13;;;221.68;;
51943;SDS011;37969;53.132;6.370;2023-08-17T04:36:08;494.13;;;261.77;;
51943;SDS011;37969;53.132;6.370;2023-08-17T04:41:01;481.67;;;257.90;;
51943;SDS011;37969;53.132;6.370;2023-08-17T04:43:27;5.10;;;2.22;;
51943;SDS011;37969;53.132;6.370;2023-08-17T04:45:53;204.13;;;176.88;;
51943;SDS011;37969;53.132;6.370;2023-08-17T04:48:19;456.58;;;188.45;;
51943;SDS011;37969;53.132;6.370;2023-08-17T04:50:46;7.90;;;3.00;;
51943;SDS011;37969;53.132;6.370;2023-08-17T05:12:41;568.73;;;460.83;;
51943;SDS011;37969;53.132;6.370;2023-08-17T05:15:07;517.03;;;339.53;;
51943;SDS011;37969;53.132;6.370;2023-08-17T05:17:33;389.00;;;250.48;;
51943;SDS011;37969;53.132;6.370;2023-08-17T05:24:52;547.45;;;429.65;;
51943;SDS011;37969;53.132;6.370;2023-08-17T05:27:18;8.05;;;3.05;;
51943;SDS011;37969;53.132;6.370;2023-08-17T05:29:44;5.88;;;2.33;;
51943;SDS011;37969;53.132;6.370;2023-08-17T05:32:10;6.45;;;2.42;;
51943;SDS011;37969;53.132;6.370;2023-08-17T05:34:37;12.82;;;3.67;;
51943;SDS011;37969;53.132;6.370;2023-08-17T05:37:03;9.13;;;2.67;;
51943;SDS011;37969;53.132;6.370;2023-08-17T05:39:29;6.93;;;2.60;;
51943;SDS011;37969;53.132;6.370;2023-08-17T05:41:55;6.30;;;2.97;;
51943;SDS011;37969;53.132;6.370;2023-08-17T05:44:22;6.95;;;2.60;;
51943;SDS011;37969;53.132;6.370;2023-08-17T05:46:48;6.07;;;2.72;;
51943;SDS011;37969;53.132;6.370;2023-08-17T05:49:14;5.80;;;2.50;;
51943;SDS011;37969;53.132;6.370;2023-08-17T05:51:40;2.92;;;2.20;;
51943;SDS011;37969;53.132;6.370;2023-08-17T05:54:07;6.28;;;2.42;;
51943;SDS011;37969;53.132;6.370;2023-08-17T05:56:33;5.40;;;2.53;;
51943;SDS011;37969;53.132;6.370;2023-08-17T05:58:59;5.25;;;2.17;;
51943;SDS011;37969;53.132;6.370;2023-08-17T06:01:25;7.55;;;2.33;;
51943;SDS011;37969;53.132;6.370;2023-08-17T06:03:51;7.53;;;1.90;;
51943;SDS011;37969;53.132;6.370;2023-08-17T06:06:20;7.88;;;2.10;;
51943;SDS011;37969;53.132;6.370;2023-08-17T06:08:46;7.90;;;2.38;;
51943;SDS011;37969;53.132;6.370;2023-08-17T06:11:13;4.93;;;2.50;;
51943;SDS011;37969;53.132;6.370;2023-08-17T06:13:39;8.40;;;2.35;;
51943;SDS011;37969;53.132;6.370;2023-08-17T06:16:05;7.28;;;2.10;;
51943;SDS011;37969;53.132;6.370;2023-08-17T06:18:31;6.18;;;2.03;;
51943;SDS011;37969;53.132;6.370;2023-08-17T06:20:58;9.75;;;2.90;;
51943;SDS011;37969;53.132;6.370;2023-08-17T06:23:24;5.20;;;2.05;;
51943;SDS011;37969;53.132;6.370;2023-08-17T06:25:50;5.22;;;2.05;;
51943;SDS011;37969;53.132;6.370;2023-08-17T06:28:16;6.38;;;2.30;;
51943;SDS011;37969;53.132;6.370;2023-08-17T06:30:43;6.95;;;2.05;;
51943;SDS011;37969;53.132;6.370;2023-08-17T06:33:09;4.43;;;2.10;;
51943;SDS011;37969;53.132;6.370;2023-08-17T06:35:35;7.97;;;2.40;;
51943;SDS011;37969;53.132;6.370;2023-08-17T06:38:01;6.65;;;2.05;;
51943;SDS011;37969;53.132;6.370;2023-08-17T06:40:27;6.68;;;2.10;;
51943;SDS011;37969;53.132;6.370;2023-08-17T06:42:54;5.70;;;1.98;;
51943;SDS011;37969;53.132;6.370;2023-08-17T06:45:20;3.83;;;1.92;;
51943;SDS011;37969;53.132;6.370;2023-08-17T06:47:47;5.95;;;2.40;;
51943;SDS011;37969;53.132;6.370;2023-08-17T06:50:14;9.50;;;2.25;;
51943;SDS011;37969;53.132;6.370;2023-08-17T06:52:40;6.30;;;2.70;;
51943;SDS011;37969;53.132;6.370;2023-08-17T06:55:06;7.25;;;2.20;;
51943;SDS011;37969;53.132;6.370;2023-08-17T06:57:32;11.20;;;2.30;;
51943;SDS011;37969;53.132;6.370;2023-08-17T06:59:59;6.18;;;2.55;;
51943;SDS011;37969;53.132;6.370;2023-08-17T07:02:25;7.63;;;2.67;;
51943;SDS011;37969;53.132;6.370;2023-08-17T07:04:51;6.85;;;2.10;;
51943;SDS011;37969;53.132;6.370;2023-08-17T07:07:18;9.80;;;2.22;;
51943;SDS011;37969;53.132;6.370;2023-08-17T07:09:44;8.25;;;2.15;;
51943;SDS011;37969;53.132;6.370;2023-08-17T07:12:10;5.35;;;1.90;;
51943;SDS011;37969;53.132;6.370;2023-08-17T07:14:36;5.97;;;1.60;;
51943;SDS011;37969;53.132;6.370;2023-08-17T07:17:02;6.13;;;1.60;;
51943;SDS011;37969;53.132;6.370;2023-08-17T07:19:29;5.47;;;1.65;;
51943;SDS011;37969;53.132;6.370;2023-08-17T07:21:55;7.70;;;2.22;;
51943;SDS011;37969;53.132;6.370;2023-08-17T07:24:22;3.90;;;1.75;;
51943;SDS011;37969;53.132;6.370;2023-08-17T07:26:48;3.58;;;1.40;;
51943;SDS011;37969;53.132;6.370;2023-08-17T07:29:14;7.38;;;1.85;;
51943;SDS011;37969;53.132;6.370;2023-08-17T07:31:40;6.32;;;1.45;;
51943;SDS011;37969;53.132;6.370;2023-08-17T07:34:07;9.70;;;1.80;;
51943;SDS011;37969;53.132;6.370;2023-08-17T07:36:33;7.47;;;1.60;;
51943;SDS011;37969;53.132;6.370;2023-08-17T07:38:59;4.07;;;1.55;;
51943;SDS011;37969;53.132;6.370;2023-08-17T07:41:26;4.47;;;1.20;;
51943;SDS011;37969;53.132;6.370;2023-08-17T07:43:52;3.50;;;1.38;;
51943;SDS011;37969;53.132;6.370;2023-08-17T07:46:18;4.57;;;1.80;;
51943;SDS011;37969;53.132;6.370;2023-08-17T07:48:44;4.20;;;1.65;;
51943;SDS011;37969;53.132;6.370;2023-08-17T07:51:11;5.05;;;1.52;;
51943;SDS011;37969;53.132;6.370;2023-08-17T07:53:37;5.32;;;1.30;;
51943;SDS011;37969;53.132;6.370;2023-08-17T07:56:03;6.03;;;1.80;;
51943;SDS011;37969;53.132;6.370;2023-08-17T07:58:29;5.25;;;1.40;;
51943;SDS011;37969;53.132;6.370;2023-08-17T08:00:56;1.92;;;1.15;;
51943;SDS011;37969;53.132;6.370;2023-08-17T08:03:23;4.88;;;1.75;;
51943;SDS011;37969;53.132;6.370;2023-08-17T08:05:49;6.10;;;1.85;;
51943;SDS011;37969;53.132;6.370;2023-08-17T08:08:15;7.40;;;2.05;;
51943;SDS011;37969;53.132;6.370;2023-08-17T08:10:42;4.22;;;1.63;;
51943;SDS011;37969;53.132;6.370;2023-08-17T08:13:09;3.42;;;1.25;;
51943;SDS011;37969;53.132;6.370;2023-08-17T08:15:35;4.68;;;1.27;;
51943;SDS011;37969;53.132;6.370;2023-08-17T08:18:02;8.52;;;1.58;;
51943;SDS011;37969;53.132;6.370;2023-08-17T08:20:28;7.40;;;1.20;;
51943;SDS011;37969;53.132;6.370;2023-08-17T08:22:54;3.65;;;1.25;;
51943;SDS011;37969;53.132;6.370;2023-08-17T08:25:21;2.88;;;1.27;;
51943;SDS011;37969;53.132;6.370;2023-08-17T08:27:47;5.93;;;1.50;;
51943;SDS011;37969;53.132;6.370;2023-08-17T08:30:13;2.50;;;1.60;;
51943;SDS011;37969;53.132;6.370;2023-08-17T08:32:39;5.28;;;1.45;;
51943;SDS011;37969;53.132;6.370;2023-08-17T08:35:06;5.70;;;1.10;;
51943;SDS011;37969;53.132;6.370;2023-08-17T08:37:32;4.82;;;1.30;;
51943;SDS011;37969;53.132;6.370;2023-08-17T08:39:58;3.55;;;1.40;;
51943;SDS011;37969;53.132;6.370;2023-08-17T08:42:24;3.15;;;1.25;;
51943;SDS011;37969;53.132;6.370;2023-08-17T08:44:51;5.70;;;1.40;;
51943;SDS011;37969;53.132;6.370;2023-08-17T08:47:18;4.15;;;1.20;;
51943;SDS011;37969;53.132;6.370;2023-08-17T08:49:49;3.45;;;1.42;;
51943;SDS011;37969;53.132;6.370;2023-08-17T08:52:19;4.65;;;1.20;;
51943;SDS011;37969;53.132;6.370;2023-08-17T08:54:46;3.35;;;1.23;;
51943;SDS011;37969;53.132;6.370;2023-08-17T08:57:15;3.65;;;1.35;;
51943;SDS011;37969;53.132;6.370;2023-08-17T08:59:43;2.83;;;1.30;;
51943;SDS011;37969;53.132;6.370;2023-08-17T09:02:15;9.00;;;1.50;;
51943;SDS011;37969;53.132;6.370;2023-08-17T09:04:43;6.72;;;1.27;;
51943;SDS011;37969;53.132;6.370;2023-08-17T09:07:11;3.90;;;1.10;;
51943;SDS011;37969;53.132;6.370;2023-08-17T09:09:39;4.65;;;1.55;;
51943;SDS011;37969;53.132;6.370;2023-08-17T09:12:07;4.70;;;0.90;;
51943;SDS011;37969;53.132;6.370;2023-08-17T09:14:35;3.67;;;1.10;;
51943;SDS011;37969;53.132;6.370;2023-08-17T09:17:03;6.05;;;1.25;;
51943;SDS011;37969;53.132;6.370;2023-08-17T09:19:31;3.63;;;1.45;;
51943;SDS011;37969;53.132;6.370;2023-08-17T09:21:58;3.70;;;1.55;;
51943;SDS011;37969;53.132;6.370;2023-08-17T09:24:24;5.78;;;1.55;;
51943;SDS011;37969;53.132;6.370;2023-08-17T09:26:54;6.70;;;1.40;;
51943;SDS011;37969;53.132;6.370;2023-08-17T09:29:23;6.57;;;1.30;;
51943;SDS011;37969;53.132;6.370;2023-08-17T09:31:51;3.85;;;1.00;;
51943;SDS011;37969;53.132;6.370;2023-08-17T09:34:17;3.60;;;1.10;;
51943;SDS011;37969;53.132;6.370;2023-08-17T09:36:46;2.63;;;1.13;;
51943;SDS011;37969;53.132;6.370;2023-08-17T09:39:15;6.15;;;1.20;;
51943;SDS011;37969;53.132;6.370;2023-08-17T09:44:09;6.07;;;1.45;;
51943;SDS011;37969;53.132;6.370;2023-08-17T09:46:35;2.75;;;1.00;;
51943;SDS011;37969;53.132;6.370;2023-08-17T09:49:02;1.38;;;0.95;;
51943;SDS011;37969;53.132;6.370;2023-08-17T09:51:29;3.70;;;1.40;;
51943;SDS011;37969;53.132;6.370;2023-08-17T09:56:22;4.53;;;1.33;;
51943;SDS011;37969;53.132;6.370;2023-08-17T09:58:49;5.28;;;1.20;;
51943;SDS011;37969;53.132;6.370;2023-08-17T10:01:18;8.43;;;1.30;;
51943;SDS011;37969;53.132;6.370;2023-08-17T10:03:44;2.53;;;1.05;;
51943;SDS011;37969;53.132;6.370;2023-08-17T10:06:12;5.53;;;1.40;;
51943;SDS011;37969;53.132;6.370;2023-08-17T10:08:41;6.10;;;1.40;;
51943;SDS011;37969;53.132;6.370;2023-08-17T10:11:08;6.75;;;1.52;;
51943;SDS011;37969;53.132;6.370;2023-08-17T10:13:37;4.47;;;1.38;;
51943;SDS011;37969;53.132;6.370;2023-08-17T10:16:10;2.00;;;1.15;;
51943;SDS011;37969;53.132;6.370;2023-08-17T10:18:40;3.25;;;1.40;;
51943;SDS011;37969;53.132;6.370;2023-08-17T10:21:11;2.65;;;1.20;;
51943;SDS011;37969;53.132;6.370;2023-08-17T10:23:40;5.20;;;1.60;;
51943;SDS011;37969;53.132;6.370;2023-08-17T10:26:06;2.88;;;1.30;;
51943;SDS011;37969;53.132;6.370;2023-08-17T10:28:34;2.88;;;1.35;;
51943;SDS011;37969;53.132;6.370;2023-08-17T10:31:00;5.78;;;1.50;;
51943;SDS011;37969;53.132;6.370;2023-08-17T10:33:27;2.42;;;1.42;;
51943;SDS011;37969;53.132;6.370;2023-08-17T10:35:55;6.25;;;1.70;;
51943;SDS011;37969;53.132;6.370;2023-08-17T10:38:21;4.97;;;1.40;;
51943;SDS011;37969;53.132;6.370;2023-08-17T10:41:06;4.00;;;1.40;;
51943;SDS011;37969;53.132;6.370;2023-08-17T10:43:33;4.40;;;1.33;;
51943;SDS011;37969;53.132;6.370;2023-08-17T10:46:15;8.60;;;1.58;;
51943;SDS011;37969;53.132;6.370;2023-08-17T10:48:43;4.18;;;1.40;;
51943;SDS011;37969;53.132;6.370;2023-08-17T10:51:09;6.05;;;1.40;;
51943;SDS011;37969;53.132;6.370;2023-08-17T10:53:38;5.03;;;1.30;;
51943;SDS011;37969;53.132;6.370;2023-08-17T10:56:10;3.15;;;1.10;;
51943;SDS011;37969;53.132;6.370;2023-08-17T10:58:37;8.33;;;1.63;;
51943;SDS011;37969;53.132;6.370;2023-08-17T11:01:04;4.10;;;1.38;;
51943;SDS011;37969;53.132;6.370;2023-08-17T11:03:30;3.28;;;1.25;;
51943;SDS011;37969;53.132;6.370;2023-08-17T11:05:58;9.02;;;1.50;;
51943;SDS011;37969;53.132;6.370;2023-08-17T11:08:40;4.95;;;1.20;;
51943;SDS011;37969;53.132;6.370;2023-08-17T11:13:33;6.38;;;1.60;;
51943;SDS011;37969;53.132;6.370;2023-08-17T11:16:00;3.85;;;1.52;;
51943;SDS011;37969;53.132;6.370;2023-08-17T11:18:26;3.75;;;1.50;;
51943;SDS011;37969;53.132;6.370;2023-08-17T11:20:53;3.15;;;1.35;;
51943;SDS011;37969;53.132;6.370;2023-08-17T11:23:22;6.30;;;1.80;;
51943;SDS011;37969;53.132;6.370;2023-08-17T11:25:49;5.25;;;1.70;;
51943;SDS011;37969;53.132;6.370;2023-08-17T11:28:16;3.85;;;1.73;;
51943;SDS011;37969;53.132;6.370;2023-08-17T11:30:43;8.07;;;1.73;;
51943;SDS011;37969;53.132;6.370;2023-08-17T11:33:09;3.90;;;1.27;;
51943;SDS011;37969;53.132;6.370;2023-08-17T11:35:36;8.27;;;1.60;;
51943;SDS011;37969;53.132;6.370;2023-08-17T11:38:03;3.70;;;1.30;;
51943;SDS011;37969;53.132;6.370;2023-08-17T11:40:31;6.45;;;1.65;;
51943;SDS011;37969;53.132;6.370;2023-08-17T11:42:58;4.20;;;1.63;;
51943;SDS011;37969;53.132;6.370;2023-08-17T11:45:24;4.57;;;1.40;;
51943;SDS011;37969;53.132;6.370;2023-08-17T11:47:50;4.65;;;2.05;;
51943;SDS011;37969;53.132;6.370;2023-08-17T11:50:17;5.68;;;1.40;;
51943;SDS011;37969;53.132;6.370;2023-08-17T11:52:43;5.53;;;1.80;;
51943;SDS011;37969;53.132;6.370;2023-08-17T11:55:10;7.25;;;1.88;;
51943;SDS011;37969;53.132;6.370;2023-08-17T11:57:36;4.60;;;1.60;;
51943;SDS011;37969;53.132;6.370;2023-08-17T12:00:03;2.90;;;1.60;;
51943;SDS011;37969;53.132;6.370;2023-08-17T12:02:32;4.90;;;2.00;;
51943;SDS011;37969;53.132;6.370;2023-08-17T12:05:02;5.55;;;1.85;;
51943;SDS011;37969;53.132;6.370;2023-08-17T12:07:31;6.30;;;1.85;;
51943;SDS011;37969;53.132;6.370;2023-08-17T12:09:58;3.78;;;1.50;;
51943;SDS011;37969;53.132;6.370;2023-08-17T12:12:24;2.53;;;1.55;;
51943;SDS011;37969;53.132;6.370;2023-08-17T12:14:50;3.30;;;2.00;;
51943;SDS011;37969;53.132;6.370;2023-08-17T12:17:17;5.70;;;1.70;;
51943;SDS011;37969;53.132;6.370;2023-08-17T12:19:44;3.88;;;1.65;;
51943;SDS011;37969;53.132;6.370;2023-08-17T12:22:10;4.90;;;1.80;;
51943;SDS011;37969;53.132;6.370;2023-08-17T12:24:38;6.13;;;2.00;;
51943;SDS011;37969;53.132;6.370;2023-08-17T12:27:05;4.55;;;1.65;;
51943;SDS011;37969;53.132;6.370;2023-08-17T12:29:31;3.75;;;1.80;;
51943;SDS011;37969;53.132;6.370;2023-08-17T12:31:58;4.47;;;1.73;;
51943;SDS011;37969;53.132;6.370;2023-08-17T12:34:24;4.68;;;1.80;;
51943;SDS011;37969;53.132;6.370;2023-08-17T12:36:53;5.80;;;2.10;;
51943;SDS011;37969;53.132;6.370;2023-08-17T12:39:20;4.97;;;1.90;;
51943;SDS011;37969;53.132;6.370;2023-08-17T12:41:46;6.35;;;1.70;;
51943;SDS011;37969;53.132;6.370;2023-08-17T12:44:12;2.85;;;1.50;;
51943;SDS011;37969;53.132;6.370;2023-08-17T12:46:39;4.07;;;1.55;;
51943;SDS011;37969;53.132;6.370;2023-08-17T12:49:05;4.72;;;1.95;;
51943;SDS011;37969;53.132;6.370;2023-08-17T12:51:32;4.85;;;1.50;;
51943;SDS011;37969;53.132;6.370;2023-08-17T12:53:59;5.50;;;1.48;;
51943;SDS011;37969;53.132;6.370;2023-08-17T12:56:25;4.65;;;1.50;;
51943;SDS011;37969;53.132;6.370;2023-08-17T12:58:51;4.50;;;1.40;;
51943;SDS011;37969;53.132;6.370;2023-08-17T13:01:17;3.40;;;2.10;;
51943;SDS011;37969;53.132;6.370;2023-08-17T13:03:43;5.10;;;1.80;;
51943;SDS011;37969;53.132;6.370;2023-08-17T13:06:10;3.42;;;1.67;;
51943;SDS011;37969;53.132;6.370;2023-08-17T13:08:36;5.15;;;1.70;;
51943;SDS011;37969;53.132;6.370;2023-08-17T13:11:02;4.65;;;1.92;;
51943;SDS011;37969;53.132;6.370;2023-08-17T13:13:28;3.65;;;1.63;;
51943;SDS011;37969;53.132;6.370;2023-08-17T13:15:55;5.93;;;2.42;;
51943;SDS011;37969;53.132;6.370;2023-08-17T13:18:21;7.78;;;2.25;;
51943;SDS011;37969;53.132;6.370;2023-08-17T13:20:48;7.78;;;2.30;;
51943;SDS011;37969;53.132;6.370;2023-08-17T13:23:15;6.28;;;2.40;;
51943;SDS011;37969;53.132;6.370;2023-08-17T13:25:41;7.45;;;2.28;;
51943;SDS011;37969;53.132;6.370;2023-08-17T13:28:07;5.75;;;1.90;;
51943;SDS011;37969;53.132;6.370;2023-08-17T13:30:34;5.15;;;2.20;;
51943;SDS011;37969;53.132;6.370;2023-08-17T13:33:00;8.00;;;2.00;;
51943;SDS011;37969;53.132;6.370;2023-08-17T13:35:26;5.82;;;1.90;;
51943;SDS011;37969;53.132;6.370;2023-08-17T13:37:52;4.22;;;2.50;;
51943;SDS011;37969;53.132;6.370;2023-08-17T13:40:19;3.83;;;1.83;;
51943;SDS011;37969;53.132;6.370;2023-08-17T13:42:45;3.50;;;1.85;;
51943;SDS011;37969;53.132;6.370;2023-08-17T13:45:12;5.45;;;1.73;;
51943;SDS011;37969;53.132;6.370;2023-08-17T13:47:38;10.13;;;2.30;;
51943;SDS011;37969;53.132;6.370;2023-08-17T13:50:04;3.35;;;1.80;;
51943;SDS011;37969;53.132;6.370;2023-08-17T13:52:31;4.30;;;1.90;;
51943;SDS011;37969;53.132;6.370;2023-08-17T13:54:57;5.07;;;2.10;;
51943;SDS011;37969;53.132;6.370;2023-08-17T13:57:23;3.42;;;1.65;;
51943;SDS011;37969;53.132;6.370;2023-08-17T13:59:50;4.03;;;1.90;;
51943;SDS011;37969;53.132;6.370;2023-08-17T14:02:16;4.13;;;2.08;;
51943;SDS011;37969;53.132;6.370;2023-08-17T14:04:42;7.50;;;1.80;;
51943;SDS011;37969;53.132;6.370;2023-08-17T14:07:08;7.88;;;2.03;;
51943;SDS011;37969;53.132;6.370;2023-08-17T14:09:35;7.80;;;2.67;;
51943;SDS011;37969;53.132;6.370;2023-08-17T14:12:01;6.18;;;2.70;;
51943;SDS011;37969;53.132;6.370;2023-08-17T14:14:27;6.53;;;2.88;;
51943;SDS011;37969;53.132;6.370;2023-08-17T14:29:04;6.97;;;3.05;;
51943;SDS011;37969;53.132;6.370;2023-08-17T14:31:31;7.07;;;3.03;;
51943;SDS011;37969;53.132;6.370;2023-08-17T14:33:57;7.88;;;3.00;;
51943;SDS011;37969;53.132;6.370;2023-08-17T14:36:23;9.50;;;3.20;;
51943;SDS011;37969;53.132;6.370;2023-08-17T14:38:49;6.55;;;2.55;;
51943;SDS011;37969;53.132;6.370;2023-08-17T14:41:16;6.78;;;3.20;;
51943;SDS011;37969;53.132;6.370;2023-08-17T14:43:42;7.60;;;2.20;;
51943;SDS011;37969;53.132;6.370;2023-08-17T14:46:08;4.40;;;2.35;;
51943;SDS011;37969;53.132;6.370;2023-08-17T14:48:35;6.13;;;2.72;;
51943;SDS011;37969;53.132;6.370;2023-08-17T14:51:02;7.85;;;2.88;;
51943;SDS011;37969;53.132;6.370;2023-08-17T14:53:28;8.10;;;2.95;;
51943;SDS011;37969;53.132;6.370;2023-08-17T14:55:55;6.97;;;2.95;;
51943;SDS011;37969;53.132;6.370;2023-08-17T14:58:21;6.53;;;2.55;;
51943;SDS011;37969;53.132;6.370;2023-08-17T15:00:48;6.07;;;3.25;;
51943;SDS011;37969;53.132;6.370;2023-08-17T15:03:14;7.28;;;2.83;;
51943;SDS011;37969;53.132;6.370;2023-08-17T15:05:40;6.80;;;2.70;;
51943;SDS011;37969;53.132;6.370;2023-08-17T15:08:06;6.22;;;2.50;;
51943;SDS011;37969;53.132;6.370;2023-08-17T15:10:32;5.93;;;2.50;;
51943;SDS011;37969;53.132;6.370;2023-08-17T15:12:59;4.38;;;2.00;;
51943;SDS011;37969;53.132;6.370;2023-08-17T15:15:26;4.53;;;2.30;;
51943;SDS011;37969;53.132;6.370;2023-08-17T15:17:52;6.18;;;2.33;;
51943;SDS011;37969;53.132;6.370;2023-08-17T15:20:18;5.05;;;2.20;;
51943;SDS011;37969;53.132;6.370;2023-08-17T15:22:44;5.43;;;2.25;;
51943;SDS011;37969;53.132;6.370;2023-08-17T15:25:11;6.53;;;2.58;;
51943;SDS011;37969;53.132;6.370;2023-08-17T15:27:37;4.97;;;2.40;;
51943;SDS011;37969;53.132;6.370;2023-08-17T15:30:03;4.15;;;2.30;;
51943;SDS011;37969;53.132;6.370;2023-08-17T15:32:30;4.60;;;2.30;;
51943;SDS011;37969;53.132;6.370;2023-08-17T15:34:56;3.95;;;2.42;;
51943;SDS011;37969;53.132;6.370;2023-08-17T15:37:22;7.03;;;2.95;;
51943;SDS011;37969;53.132;6.370;2023-08-17T15:39:49;6.57;;;2.30;;
51943;SDS011;37969;53.132;6.370;2023-08-17T15:42:16;6.50;;;2.88;;
51943;SDS011;37969;53.132;6.370;2023-08-17T15:44:42;4.13;;;2.55;;
51943;SDS011;37969;53.132;6.370;2023-08-17T15:47:08;6.93;;;3.20;;
51943;SDS011;37969;53.132;6.370;2023-08-17T15:49:34;5.60;;;2.70;;
51943;SDS011;37969;53.132;6.370;2023-08-17T15:52:00;7.35;;;2.88;;
51943;SDS011;37969;53.132;6.370;2023-08-17T15:54:27;8.25;;;3.28;;
51943;SDS011;37969;53.132;6.370;2023-08-17T15:56:56;11.43;;;3.17;;
51943;SDS011;37969;53.132;6.370;2023-08-17T15:59:22;3.58;;;2.63;;
51943;SDS011;37969;53.132;6.370;2023-08-17T16:01:48;8.18;;;3.45;;
51943;SDS011;37969;53.132;6.370;2023-08-17T16:04:14;6.85;;;2.95;;
51943;SDS011;37969;53.132;6.370;2023-08-17T16:06:41;6.05;;;3.38;;
51943;SDS011;37969;53.132;6.370;2023-08-17T16:09:09;6.70;;;2.85;;
51943;SDS011;37969;53.132;6.370;2023-08-17T16:11:35;5.70;;;3.10;;
51943;SDS011;37969;53.132;6.370;2023-08-17T16:14:01;8.50;;;2.70;;
51943;SDS011;37969;53.132;6.370;2023-08-17T16:16:27;6.45;;;3.35;;
51943;SDS011;37969;53.132;6.370;2023-08-17T16:18:53;6.57;;;3.05;;
51943;SDS011;37969;53.132;6.370;2023-08-17T16:21:20;7.93;;;3.15;;
51943;SDS011;37969;53.132;6.370;2023-08-17T16:23:46;2.88;;;2.50;;
51943;SDS011;37969;53.132;6.370;2023-08-17T16:26:12;6.50;;;3.42;;
51943;SDS011;37969;53.132;6.370;2023-08-17T16:28:38;7.38;;;3.83;;
51943;SDS011;37969;53.132;6.370;2023-08-17T16:31:05;5.35;;;3.75;;
51943;SDS011;37969;53.132;6.370;2023-08-17T16:33:31;7.97;;;4.07;;
51943;SDS011;37969;53.132;6.370;2023-08-17T16:35:57;8.52;;;4.22;;
51943;SDS011;37969;53.132;6.370;2023-08-17T16:38:23;5.15;;;3.63;;
51943;SDS011;37969;53.132;6.370;2023-08-17T16:40:50;3.83;;;3.35;;
51943;SDS011;37969;53.132;6.370;2023-08-17T16:43:16;5.85;;;3.47;;
51943;SDS011;37969;53.132;6.370;2023-08-17T16:45:45;5.45;;;3.78;;
51943;SDS011;37969;53.132;6.370;2023-08-17T16:48:11;7.30;;;3.85;;
51943;SDS011;37969;53.132;6.370;2023-08-17T16:50:37;8.15;;;3.33;;
51943;SDS011;37969;53.132;6.370;2023-08-17T16:53:03;10.63;;;4.93;;
51943;SDS011;37969;53.132;6.370;2023-08-17T16:55:30;5.88;;;3.70;;
51943;SDS011;37969;53.132;6.370;2023-08-17T16:57:56;5.20;;;3.40;;
51943;SDS011;37969;53.132;6.370;2023-08-17T17:00:23;4.00;;;3.08;;
51943;SDS011;37969;53.132;6.370;2023-08-17T17:02:49;7.30;;;3.90;;
51943;SDS011;37969;53.132;6.370;2023-08-17T17:05:18;4.10;;;3.37;;
51943;SDS011;37969;53.132;6.370;2023-08-17T17:07:44;6.88;;;4.00;;
51943;SDS011;37969;53.132;6.370;2023-08-17T17:10:10;5.22;;;3.00;;
51943;SDS011;37969;53.132;6.370;2023-08-17T17:12:37;8.77;;;4.32;;
51943;SDS011;37969;53.132;6.370;2023-08-17T17:15:05;5.25;;;3.72;;
51943;SDS011;37969;53.132;6.370;2023-08-17T17:17:31;7.28;;;3.45;;
51943;SDS011;37969;53.132;6.370;2023-08-17T17:19:57;5.43;;;3.22;;
51943;SDS011;37969;53.132;6.370;2023-08-17T17:22:25;4.80;;;3.65;;
51943;SDS011;37969;53.132;6.370;2023-08-17T17:24:52;3.80;;;3.38;;
51943;SDS011;37969;53.132;6.370;2023-08-17T17:27:18;6.00;;;3.40;;
51943;SDS011;37969;53.132;6.370;2023-08-17T17:29:44;5.90;;;3.55;;
51943;SDS011;37969;53.132;6.370;2023-08-17T17:32:10;6.95;;;3.55;;
51943;SDS011;37969;53.132;6.370;2023-08-17T17:34:37;9.95;;;3.22;;
51943;SDS011;37969;53.132;6.370;2023-08-17T17:37:03;4.15;;;3.05;;
51943;SDS011;37969;53.132;6.370;2023-08-17T17:39:29;5.53;;;3.17;;
51943;SDS011;37969;53.132;6.370;2023-08-17T17:41:55;7.82;;;4.07;;
51943;SDS011;37969;53.132;6.370;2023-08-17T17:44:22;6.25;;;3.50;;
51943;SDS011;37969;53.132;6.370;2023-08-17T17:46:48;9.50;;;3.22;;
51943;SDS011;37969;53.132;6.370;2023-08-17T17:49:14;6.57;;;2.83;;